sensor_id;sensor_type;location;lat;lon;timestamp;P1;durP1;ratioP1;P2;durP2;ratioP2
37641;SDS011;23486;51.956;5.888;2023-04-15T00:00:50;7.22;;;2.83;;
37641;SDS011;23486;51.956;5.888;2023-04-15T00:03:16;8.63;;;2.70;;
37641;SDS011;23486;51.956;5.888;2023-04-15T00:05:42;5.75;;;2.10;;
37641;SDS011;23486;51.956;5.888;2023-04-15T00:08:08;4.97;;;2.58;;
37641;SDS011;23486;51.956;5.888;2023-04-15T00:10:34;5.68;;;2.63;;
37641;SDS011;23486;51.956;5.888;2023-04-15T00:12:59;5.00;;;2.38;;
37641;SDS011;23486;51.956;5.888;2023-04-15T00:15:26;5.80;;;2.28;;
37641;SDS011;23486;51.956;5.888;2023-04-15T00:17:52;7.20;;;2.80;;
37641;SDS011;23486;51.956;5.888;2023-04-15T00:20:17;5.68;;;2.05;;
37641;SDS011;23486;51.956;5.888;2023-04-15T00:22:43;6.80;;;2.88;;
37641;SDS011;23486;51.956;5.888;2023-04-15T00:25:08;8.45;;;3.40;;
37641;SDS011;23486;51.956;5.888;2023-04-15T00:27:34;9.80;;;3.15;;
37641;SDS011;23486;51.956;5.888;2023-04-15T00:30:00;9.38;;;3.25;;
37641;SDS011;23486;51.956;5.888;2023-04-15T00:32:26;8.65;;;3.95;;
37641;SDS011;23486;51.956;5.888;2023-04-15T00:34:51;6.55;;;3.63;;
37641;SDS011;23486;51.956;5.888;2023-04-15T00:37:17;5.47;;;3.40;;
37641;SDS011;23486;51.956;5.888;2023-04-15T00:39:43;7.78;;;3.65;;
37641;SDS011;23486;51.956;5.888;2023-04-15T00:42:09;6.35;;;3.60;;
37641;SDS011;23486;51.956;5.888;2023-04-15T00:44:35;5.65;;;3.50;;
37641;SDS011;23486;51.956;5.888;2023-04-15T00:47:00;10.95;;;4.35;;
37641;SDS011;23486;51.956;5.888;2023-04-15T00:49:27;8.13;;;3.88;;
37641;SDS011;23486;51.956;5.888;2023-04-15T00:51:53;5.03;;;2.97;;
37641;SDS011;23486;51.956;5.888;2023-04-15T00:54:21;7.85;;;3.00;;
37641;SDS011;23486;51.956;5.888;2023-04-15T00:56:47;6.38;;;2.95;;
37641;SDS011;23486;51.956;5.888;2023-04-15T00:59:13;6.60;;;2.88;;
37641;SDS011;23486;51.956;5.888;2023-04-15T01:01:39;6.45;;;2.78;;
37641;SDS011;23486;51.956;5.888;2023-04-15T01:04:08;7.03;;;2.83;;
37641;SDS011;23486;51.956;5.888;2023-04-15T01:06:36;10.45;;;3.65;;
37641;SDS011;23486;51.956;5.888;2023-04-15T01:09:11;7.00;;;3.80;;
37641;SDS011;23486;51.956;5.888;2023-04-15T01:11:36;7.22;;;3.42;;
37641;SDS011;23486;51.956;5.888;2023-04-15T01:14:02;9.10;;;3.58;;
37641;SDS011;23486;51.956;5.888;2023-04-15T01:16:28;9.88;;;3.78;;
37641;SDS011;23486;51.956;5.888;2023-04-15T01:18:55;6.35;;;3.15;;
37641;SDS011;23486;51.956;5.888;2023-04-15T01:21:21;4.95;;;2.97;;
37641;SDS011;23486;51.956;5.888;2023-04-15T01:23:47;7.15;;;3.30;;
37641;SDS011;23486;51.956;5.888;2023-04-15T01:26:15;6.50;;;4.30;;
37641;SDS011;23486;51.956;5.888;2023-04-15T01:28:41;5.90;;;2.75;;
37641;SDS011;23486;51.956;5.888;2023-04-15T01:31:10;8.20;;;4.22;;
37641;SDS011;23486;51.956;5.888;2023-04-15T01:33:40;11.00;;;3.50;;
37641;SDS011;23486;51.956;5.888;2023-04-15T01:36:07;8.20;;;4.05;;
37641;SDS011;23486;51.956;5.888;2023-04-15T01:38:34;6.57;;;3.78;;
37641;SDS011;23486;51.956;5.888;2023-04-15T01:41:00;5.13;;;2.92;;
37641;SDS011;23486;51.956;5.888;2023-04-15T01:43:26;6.78;;;3.88;;
37641;SDS011;23486;51.956;5.888;2023-04-15T01:45:52;8.15;;;3.78;;
37641;SDS011;23486;51.956;5.888;2023-04-15T01:48:21;7.35;;;3.63;;
37641;SDS011;23486;51.956;5.888;2023-04-15T01:50:47;7.88;;;3.55;;
37641;SDS011;23486;51.956;5.888;2023-04-15T01:53:13;6.60;;;4.25;;
37641;SDS011;23486;51.956;5.888;2023-04-15T01:55:39;7.10;;;3.85;;
37641;SDS011;23486;51.956;5.888;2023-04-15T01:58:05;8.48;;;4.63;;
37641;SDS011;23486;51.956;5.888;2023-04-15T02:00:34;10.65;;;3.97;;
37641;SDS011;23486;51.956;5.888;2023-04-15T02:03:00;9.30;;;4.40;;
37641;SDS011;23486;51.956;5.888;2023-04-15T02:05:25;8.77;;;4.40;;
37641;SDS011;23486;51.956;5.888;2023-04-15T02:07:51;8.32;;;4.95;;
37641;SDS011;23486;51.956;5.888;2023-04-15T02:10:17;8.43;;;4.82;;
37641;SDS011;23486;51.956;5.888;2023-04-15T02:12:43;7.95;;;4.53;;
37641;SDS011;23486;51.956;5.888;2023-04-15T02:15:09;7.78;;;4.47;;
37641;SDS011;23486;51.956;5.888;2023-04-15T02:17:35;7.45;;;4.53;;
37641;SDS011;23486;51.956;5.888;2023-04-15T02:20:01;6.85;;;4.50;;
37641;SDS011;23486;51.956;5.888;2023-04-15T02:22:29;10.07;;;5.07;;
37641;SDS011;23486;51.956;5.888;2023-04-15T02:24:55;7.63;;;4.32;;
37641;SDS011;23486;51.956;5.888;2023-04-15T02:27:21;8.20;;;3.97;;
37641;SDS011;23486;51.956;5.888;2023-04-15T02:29:46;8.25;;;4.05;;
37641;SDS011;23486;51.956;5.888;2023-04-15T02:32:14;9.52;;;5.15;;
37641;SDS011;23486;51.956;5.888;2023-04-15T02:34:43;9.25;;;4.35;;
37641;SDS011;23486;51.956;5.888;2023-04-15T02:37:09;6.43;;;4.07;;
37641;SDS011;23486;51.956;5.888;2023-04-15T02:39:35;6.95;;;4.32;;
37641;SDS011;23486;51.956;5.888;2023-04-15T02:42:02;7.55;;;4.97;;
37641;SDS011;23486;51.956;5.888;2023-04-15T02:44:28;8.77;;;4.53;;
37641;SDS011;23486;51.956;5.888;2023-04-15T02:46:55;11.85;;;5.75;;
37641;SDS011;23486;51.956;5.888;2023-04-15T02:49:22;9.70;;;4.88;;
37641;SDS011;23486;51.956;5.888;2023-04-15T02:51:48;8.32;;;4.72;;
37641;SDS011;23486;51.956;5.888;2023-04-15T02:54:20;10.85;;;5.75;;
37641;SDS011;23486;51.956;5.888;2023-04-15T02:56:47;12.05;;;6.30;;
37641;SDS011;23486;51.956;5.888;2023-04-15T02:59:12;9.45;;;4.88;;
37641;SDS011;23486;51.956;5.888;2023-04-15T03:01:38;8.65;;;5.38;;
37641;SDS011;23486;51.956;5.888;2023-04-15T03:04:03;10.95;;;5.45;;
37641;SDS011;23486;51.956;5.888;2023-04-15T03:06:29;9.30;;;5.60;;
37641;SDS011;23486;51.956;5.888;2023-04-15T03:08:55;12.77;;;5.18;;
37641;SDS011;23486;51.956;5.888;2023-04-15T03:11:21;9.10;;;5.45;;
37641;SDS011;23486;51.956;5.888;2023-04-15T03:13:47;7.75;;;5.05;;
37641;SDS011;23486;51.956;5.888;2023-04-15T03:16:12;9.07;;;4.63;;
37641;SDS011;23486;51.956;5.888;2023-04-15T03:18:38;6.90;;;3.78;;
37641;SDS011;23486;51.956;5.888;2023-04-15T03:21:03;11.10;;;6.00;;
37641;SDS011;23486;51.956;5.888;2023-04-15T03:23:30;11.35;;;5.75;;
37641;SDS011;23486;51.956;5.888;2023-04-15T03:25:57;9.73;;;6.50;;
37641;SDS011;23486;51.956;5.888;2023-04-15T03:28:25;10.02;;;5.53;;
37641;SDS011;23486;51.956;5.888;2023-04-15T03:30:56;10.02;;;5.97;;
37641;SDS011;23486;51.956;5.888;2023-04-15T03:33:22;8.85;;;5.63;;
37641;SDS011;23486;51.956;5.888;2023-04-15T03:35:49;10.40;;;5.10;;
37641;SDS011;23486;51.956;5.888;2023-04-15T03:38:15;11.27;;;5.25;;
37641;SDS011;23486;51.956;5.888;2023-04-15T03:40:41;7.30;;;4.90;;
37641;SDS011;23486;51.956;5.888;2023-04-15T03:43:06;12.30;;;6.03;;
37641;SDS011;23486;51.956;5.888;2023-04-15T03:45:32;12.13;;;6.30;;
37641;SDS011;23486;51.956;5.888;2023-04-15T03:47:58;8.32;;;5.57;;
37641;SDS011;23486;51.956;5.888;2023-04-15T03:50:23;9.88;;;6.30;;
37641;SDS011;23486;51.956;5.888;2023-04-15T03:52:49;11.88;;;6.38;;
37641;SDS011;23486;51.956;5.888;2023-04-15T03:55:14;10.57;;;7.10;;
37641;SDS011;23486;51.956;5.888;2023-04-15T03:57:40;8.30;;;5.57;;
37641;SDS011;23486;51.956;5.888;2023-04-15T04:00:06;14.88;;;7.13;;
37641;SDS011;23486;51.956;5.888;2023-04-15T04:02:35;11.30;;;5.97;;
37641;SDS011;23486;51.956;5.888;2023-04-15T04:05:00;11.43;;;6.10;;
37641;SDS011;23486;51.956;5.888;2023-04-15T04:07:26;12.70;;;7.18;;
37641;SDS011;23486;51.956;5.888;2023-04-15T04:09:51;13.95;;;6.68;;
37641;SDS011;23486;51.956;5.888;2023-04-15T04:12:17;10.98;;;6.72;;
37641;SDS011;23486;51.956;5.888;2023-04-15T04:14:43;11.07;;;6.35;;
37641;SDS011;23486;51.956;5.888;2023-04-15T04:17:08;9.10;;;6.28;;
37641;SDS011;23486;51.956;5.888;2023-04-15T04:19:34;9.88;;;6.18;;
37641;SDS011;23486;51.956;5.888;2023-04-15T04:22:00;10.30;;;5.55;;
37641;SDS011;23486;51.956;5.888;2023-04-15T04:24:26;10.20;;;5.63;;
37641;SDS011;23486;51.956;5.888;2023-04-15T04:26:51;11.35;;;6.65;;
37641;SDS011;23486;51.956;5.888;2023-04-15T04:29:20;12.55;;;6.68;;
37641;SDS011;23486;51.956;5.888;2023-04-15T04:31:45;10.63;;;6.15;;
37641;SDS011;23486;51.956;5.888;2023-04-15T04:34:12;8.80;;;6.00;;
37641;SDS011;23486;51.956;5.888;2023-04-15T04:36:38;13.80;;;7.72;;
37641;SDS011;23486;51.956;5.888;2023-04-15T04:39:03;10.73;;;7.18;;
37641;SDS011;23486;51.956;5.888;2023-04-15T04:41:29;12.93;;;7.65;;
37641;SDS011;23486;51.956;5.888;2023-04-15T04:43:54;18.70;;;8.02;;
37641;SDS011;23486;51.956;5.888;2023-04-15T04:46:20;11.80;;;7.10;;
37641;SDS011;23486;51.956;5.888;2023-04-15T04:48:46;11.43;;;7.53;;
37641;SDS011;23486;51.956;5.888;2023-04-15T04:51:11;11.90;;;6.68;;
37641;SDS011;23486;51.956;5.888;2023-04-15T04:53:37;11.27;;;6.53;;
37641;SDS011;23486;51.956;5.888;2023-04-15T04:56:03;10.30;;;6.47;;
37641;SDS011;23486;51.956;5.888;2023-04-15T04:58:28;11.10;;;6.50;;
37641;SDS011;23486;51.956;5.888;2023-04-15T05:00:54;15.48;;;8.45;;
37641;SDS011;23486;51.956;5.888;2023-04-15T05:03:20;18.50;;;9.82;;
37641;SDS011;23486;51.956;5.888;2023-04-15T05:05:46;12.07;;;8.02;;
37641;SDS011;23486;51.956;5.888;2023-04-15T05:08:13;14.23;;;8.13;;
37641;SDS011;23486;51.956;5.888;2023-04-15T05:10:39;13.15;;;7.65;;
37641;SDS011;23486;51.956;5.888;2023-04-15T05:13:05;12.18;;;7.53;;
37641;SDS011;23486;51.956;5.888;2023-04-15T05:15:30;12.90;;;7.72;;
37641;SDS011;23486;51.956;5.888;2023-04-15T05:17:57;10.60;;;6.85;;
37641;SDS011;23486;51.956;5.888;2023-04-15T05:20:22;11.00;;;7.50;;
37641;SDS011;23486;51.956;5.888;2023-04-15T05:22:48;11.35;;;7.20;;
37641;SDS011;23486;51.956;5.888;2023-04-15T05:25:13;16.13;;;7.38;;
37641;SDS011;23486;51.956;5.888;2023-04-15T05:27:39;15.75;;;10.10;;
37641;SDS011;23486;51.956;5.888;2023-04-15T05:30:05;15.32;;;8.73;;
37641;SDS011;23486;51.956;5.888;2023-04-15T05:32:31;14.25;;;7.97;;
37641;SDS011;23486;51.956;5.888;2023-04-15T05:34:59;12.90;;;8.15;;
37641;SDS011;23486;51.956;5.888;2023-04-15T05:37:25;13.70;;;8.60;;
37641;SDS011;23486;51.956;5.888;2023-04-15T05:39:51;11.80;;;7.45;;
37641;SDS011;23486;51.956;5.888;2023-04-15T05:42:16;13.77;;;8.68;;
37641;SDS011;23486;51.956;5.888;2023-04-15T05:44:42;16.85;;;8.77;;
37641;SDS011;23486;51.956;5.888;2023-04-15T05:47:08;15.35;;;9.40;;
37641;SDS011;23486;51.956;5.888;2023-04-15T05:49:34;13.23;;;8.52;;
37641;SDS011;23486;51.956;5.888;2023-04-15T05:52:00;14.73;;;8.82;;
37641;SDS011;23486;51.956;5.888;2023-04-15T05:54:28;13.60;;;8.70;;
37641;SDS011;23486;51.956;5.888;2023-04-15T05:56:55;15.50;;;9.35;;
37641;SDS011;23486;51.956;5.888;2023-04-15T05:59:21;13.88;;;9.60;;
37641;SDS011;23486;51.956;5.888;2023-04-15T06:01:47;15.10;;;9.82;;
37641;SDS011;23486;51.956;5.888;2023-04-15T06:04:13;15.27;;;10.60;;
37641;SDS011;23486;51.956;5.888;2023-04-15T06:06:39;15.82;;;9.45;;
37641;SDS011;23486;51.956;5.888;2023-04-15T06:09:07;17.83;;;10.18;;
37641;SDS011;23486;51.956;5.888;2023-04-15T06:11:33;14.60;;;9.15;;
37641;SDS011;23486;51.956;5.888;2023-04-15T06:13:58;11.63;;;7.68;;
37641;SDS011;23486;51.956;5.888;2023-04-15T06:16:24;16.02;;;9.27;;
37641;SDS011;23486;51.956;5.888;2023-04-15T06:18:50;14.57;;;9.23;;
37641;SDS011;23486;51.956;5.888;2023-04-15T06:21:15;14.90;;;9.55;;
37641;SDS011;23486;51.956;5.888;2023-04-15T06:23:41;12.95;;;8.45;;
37641;SDS011;23486;51.956;5.888;2023-04-15T06:26:06;14.23;;;8.45;;
37641;SDS011;23486;51.956;5.888;2023-04-15T06:28:32;14.32;;;8.90;;
37641;SDS011;23486;51.956;5.888;2023-04-15T06:30:58;14.00;;;7.85;;
37641;SDS011;23486;51.956;5.888;2023-04-15T06:33:27;13.35;;;7.93;;
37641;SDS011;23486;51.956;5.888;2023-04-15T06:35:55;14.15;;;8.32;;
37641;SDS011;23486;51.956;5.888;2023-04-15T06:38:24;11.77;;;7.45;;
37641;SDS011;23486;51.956;5.888;2023-04-15T06:40:55;15.45;;;8.80;;
37641;SDS011;23486;51.956;5.888;2023-04-15T06:43:21;13.80;;;8.43;;
37641;SDS011;23486;51.956;5.888;2023-04-15T06:45:49;13.45;;;8.43;;
37641;SDS011;23486;51.956;5.888;2023-04-15T06:48:15;13.98;;;9.10;;
37641;SDS011;23486;51.956;5.888;2023-04-15T06:50:44;12.73;;;7.93;;
37641;SDS011;23486;51.956;5.888;2023-04-15T06:53:10;12.57;;;7.88;;
37641;SDS011;23486;51.956;5.888;2023-04-15T06:55:36;12.48;;;7.18;;
37641;SDS011;23486;51.956;5.888;2023-04-15T06:58:01;10.15;;;6.78;;
37641;SDS011;23486;51.956;5.888;2023-04-15T07:00:30;10.55;;;7.38;;
37641;SDS011;23486;51.956;5.888;2023-04-15T07:02:57;11.60;;;7.70;;
37641;SDS011;23486;51.956;5.888;2023-04-15T07:05:24;10.80;;;7.18;;
37641;SDS011;23486;51.956;5.888;2023-04-15T07:07:50;12.80;;;8.02;;
37641;SDS011;23486;51.956;5.888;2023-04-15T07:10:17;10.57;;;6.53;;
37641;SDS011;23486;51.956;5.888;2023-04-15T07:12:42;11.65;;;7.38;;
37641;SDS011;23486;51.956;5.888;2023-04-15T07:15:08;13.55;;;8.38;;
37641;SDS011;23486;51.956;5.888;2023-04-15T07:17:34;11.90;;;7.43;;
37641;SDS011;23486;51.956;5.888;2023-04-15T07:19:59;12.73;;;8.05;;
37641;SDS011;23486;51.956;5.888;2023-04-15T07:22:25;11.85;;;7.40;;
37641;SDS011;23486;51.956;5.888;2023-04-15T07:24:50;11.25;;;6.72;;
37641;SDS011;23486;51.956;5.888;2023-04-15T07:27:16;11.23;;;6.28;;
37641;SDS011;23486;51.956;5.888;2023-04-15T07:29:41;9.38;;;6.38;;
37641;SDS011;23486;51.956;5.888;2023-04-15T07:32:07;9.95;;;5.93;;
37641;SDS011;23486;51.956;5.888;2023-04-15T07:34:34;10.68;;;6.13;;
37641;SDS011;23486;51.956;5.888;2023-04-15T07:37:00;11.95;;;6.90;;
37641;SDS011;23486;51.956;5.888;2023-04-15T07:39:26;9.80;;;5.60;;
37641;SDS011;23486;51.956;5.888;2023-04-15T07:41:51;10.52;;;6.35;;
37641;SDS011;23486;51.956;5.888;2023-04-15T07:44:17;9.23;;;5.57;;
37641;SDS011;23486;51.956;5.888;2023-04-15T07:46:42;11.63;;;6.90;;
37641;SDS011;23486;51.956;5.888;2023-04-15T07:49:08;11.32;;;7.18;;
37641;SDS011;23486;51.956;5.888;2023-04-15T07:51:33;11.65;;;6.97;;
37641;SDS011;23486;51.956;5.888;2023-04-15T07:53:59;9.20;;;5.95;;
37641;SDS011;23486;51.956;5.888;2023-04-15T07:56:25;11.20;;;6.43;;
37641;SDS011;23486;51.956;5.888;2023-04-15T07:58:51;9.40;;;5.93;;
37641;SDS011;23486;51.956;5.888;2023-04-15T08:01:19;11.38;;;5.50;;
37641;SDS011;23486;51.956;5.888;2023-04-15T08:03:45;11.95;;;6.68;;
37641;SDS011;23486;51.956;5.888;2023-04-15T08:06:11;10.52;;;6.88;;
37641;SDS011;23486;51.956;5.888;2023-04-15T08:08:39;10.32;;;6.50;;
37641;SDS011;23486;51.956;5.888;2023-04-15T08:11:05;12.00;;;7.70;;
37641;SDS011;23486;51.956;5.888;2023-04-15T08:13:31;11.35;;;6.93;;
37641;SDS011;23486;51.956;5.888;2023-04-15T08:16:12;9.43;;;6.72;;
37641;SDS011;23486;51.956;5.888;2023-04-15T08:18:41;9.18;;;5.55;;
37641;SDS011;23486;51.956;5.888;2023-04-15T08:21:06;9.82;;;6.68;;
37641;SDS011;23486;51.956;5.888;2023-04-15T08:23:32;9.82;;;5.90;;
37641;SDS011;23486;51.956;5.888;2023-04-15T08:25:58;9.02;;;4.78;;
37641;SDS011;23486;51.956;5.888;2023-04-15T08:28:24;11.68;;;6.47;;
37641;SDS011;23486;51.956;5.888;2023-04-15T08:30:51;6.95;;;5.20;;
37641;SDS011;23486;51.956;5.888;2023-04-15T08:33:17;5.63;;;3.92;;
37641;SDS011;23486;51.956;5.888;2023-04-15T08:35:43;6.70;;;4.00;;
37641;SDS011;23486;51.956;5.888;2023-04-15T08:38:08;5.20;;;2.97;;
37641;SDS011;23486;51.956;5.888;2023-04-15T08:40:43;5.75;;;2.83;;
37641;SDS011;23486;51.956;5.888;2023-04-15T08:43:12;4.63;;;2.53;;
37641;SDS011;23486;51.956;5.888;2023-04-15T08:45:42;5.07;;;2.20;;
37641;SDS011;23486;51.956;5.888;2023-04-15T08:48:09;6.63;;;2.78;;
37641;SDS011;23486;51.956;5.888;2023-04-15T08:50:48;4.15;;;1.98;;
37641;SDS011;23486;51.956;5.888;2023-04-15T08:53:18;6.93;;;3.03;;
37641;SDS011;23486;51.956;5.888;2023-04-15T08:55:44;6.15;;;2.50;;
37641;SDS011;23486;51.956;5.888;2023-04-15T08:58:11;4.93;;;3.00;;
37641;SDS011;23486;51.956;5.888;2023-04-15T09:00:41;5.25;;;2.67;;
37641;SDS011;23486;51.956;5.888;2023-04-15T09:03:07;7.57;;;2.60;;
37641;SDS011;23486;51.956;5.888;2023-04-15T09:05:33;10.57;;;4.90;;
37641;SDS011;23486;51.956;5.888;2023-04-15T09:08:00;46.83;;;20.27;;
37641;SDS011;23486;51.956;5.888;2023-04-15T09:10:26;54.17;;;22.42;;
37641;SDS011;23486;51.956;5.888;2023-04-15T09:12:53;31.23;;;13.60;;
37641;SDS011;23486;51.956;5.888;2023-04-15T09:15:18;20.92;;;8.32;;
37641;SDS011;23486;51.956;5.888;2023-04-15T09:17:45;47.65;;;19.75;;
37641;SDS011;23486;51.956;5.888;2023-04-15T09:20:12;40.40;;;16.70;;
37641;SDS011;23486;51.956;5.888;2023-04-15T09:22:43;33.35;;;14.57;;
37641;SDS011;23486;51.956;5.888;2023-04-15T09:27:54;13.38;;;5.30;;
37641;SDS011;23486;51.956;5.888;2023-04-15T09:30:25;8.95;;;3.90;;
37641;SDS011;23486;51.956;5.888;2023-04-15T09:32:55;8.75;;;4.07;;
37641;SDS011;23486;51.956;5.888;2023-04-15T09:35:26;7.47;;;3.17;;
37641;SDS011;23486;51.956;5.888;2023-04-15T09:37:52;7.65;;;3.13;;
37641;SDS011;23486;51.956;5.888;2023-04-15T09:40:33;5.50;;;2.67;;
37641;SDS011;23486;51.956;5.888;2023-04-15T09:43:06;5.30;;;3.00;;
37641;SDS011;23486;51.956;5.888;2023-04-15T09:45:33;7.07;;;4.05;;
37641;SDS011;23486;51.956;5.888;2023-04-15T09:50:45;4.47;;;2.80;;
37641;SDS011;23486;51.956;5.888;2023-04-15T09:53:19;7.75;;;2.85;;
37641;SDS011;23486;51.956;5.888;2023-04-15T09:55:53;3.75;;;1.98;;
37641;SDS011;23486;51.956;5.888;2023-04-15T09:58:28;6.43;;;2.67;;
37641;SDS011;23486;51.956;5.888;2023-04-15T10:00:55;5.70;;;3.22;;
37641;SDS011;23486;51.956;5.888;2023-04-15T10:03:26;4.65;;;2.33;;
37641;SDS011;23486;51.956;5.888;2023-04-15T10:05:54;5.38;;;2.00;;
37641;SDS011;23486;51.956;5.888;2023-04-15T10:08:22;3.83;;;1.45;;
37641;SDS011;23486;51.956;5.888;2023-04-15T10:10:49;5.80;;;2.28;;
37641;SDS011;23486;51.956;5.888;2023-04-15T10:13:23;6.45;;;1.88;;
37641;SDS011;23486;51.956;5.888;2023-04-15T10:15:53;4.75;;;2.25;;
37641;SDS011;23486;51.956;5.888;2023-04-15T10:18:25;4.20;;;2.20;;
37641;SDS011;23486;51.956;5.888;2023-04-15T10:20:52;4.25;;;1.90;;
37641;SDS011;23486;51.956;5.888;2023-04-15T10:23:19;3.15;;;1.23;;
37641;SDS011;23486;51.956;5.888;2023-04-15T10:25:47;5.00;;;1.60;;
37641;SDS011;23486;51.956;5.888;2023-04-15T10:28:15;9.68;;;1.60;;
37641;SDS011;23486;51.956;5.888;2023-04-15T10:30:41;4.07;;;1.70;;
37641;SDS011;23486;51.956;5.888;2023-04-15T10:33:07;4.32;;;1.80;;
37641;SDS011;23486;51.956;5.888;2023-04-15T10:35:33;3.30;;;1.55;;
37641;SDS011;23486;51.956;5.888;2023-04-15T10:38:00;3.33;;;1.27;;
37641;SDS011;23486;51.956;5.888;2023-04-15T10:40:27;5.30;;;1.65;;
37641;SDS011;23486;51.956;5.888;2023-04-15T10:42:59;3.47;;;1.55;;
37641;SDS011;23486;51.956;5.888;2023-04-15T10:45:27;3.45;;;1.48;;
37641;SDS011;23486;51.956;5.888;2023-04-15T10:47:56;4.05;;;2.08;;
37641;SDS011;23486;51.956;5.888;2023-04-15T10:50:26;5.30;;;1.45;;
37641;SDS011;23486;51.956;5.888;2023-04-15T10:52:53;4.43;;;1.80;;
37641;SDS011;23486;51.956;5.888;2023-04-15T10:55:21;4.93;;;1.63;;
37641;SDS011;23486;51.956;5.888;2023-04-15T10:57:51;4.07;;;0.88;;
37641;SDS011;23486;51.956;5.888;2023-04-15T11:00:18;5.10;;;1.90;;
37641;SDS011;23486;51.956;5.888;2023-04-15T11:02:55;4.00;;;1.30;;
37641;SDS011;23486;51.956;5.888;2023-04-15T11:08:13;5.47;;;1.60;;
37641;SDS011;23486;51.956;5.888;2023-04-15T11:23:20;4.03;;;1.23;;
37641;SDS011;23486;51.956;5.888;2023-04-15T11:26:02;3.38;;;0.80;;
37641;SDS011;23486;51.956;5.888;2023-04-15T11:28:31;5.07;;;0.88;;
37641;SDS011;23486;51.956;5.888;2023-04-15T11:30:57;2.75;;;0.82;;
37641;SDS011;23486;51.956;5.888;2023-04-15T11:33:29;4.20;;;1.00;;
37641;SDS011;23486;51.956;5.888;2023-04-15T11:35:55;2.35;;;0.73;;
37641;SDS011;23486;51.956;5.888;2023-04-15T11:38:21;2.85;;;0.80;;
37641;SDS011;23486;51.956;5.888;2023-04-15T11:40:46;3.00;;;0.75;;
37641;SDS011;23486;51.956;5.888;2023-04-15T11:43:15;3.08;;;0.80;;
37641;SDS011;23486;51.956;5.888;2023-04-15T11:45:58;3.75;;;0.70;;
37641;SDS011;23486;51.956;5.888;2023-04-15T11:48:26;2.88;;;0.70;;
37641;SDS011;23486;51.956;5.888;2023-04-15T11:51:03;2.47;;;0.77;;
37641;SDS011;23486;51.956;5.888;2023-04-15T11:53:47;1.98;;;0.55;;
37641;SDS011;23486;51.956;5.888;2023-04-15T11:58:46;2.47;;;0.68;;
37641;SDS011;23486;51.956;5.888;2023-04-15T12:01:14;2.75;;;0.50;;
37641;SDS011;23486;51.956;5.888;2023-04-15T12:03:41;3.08;;;0.70;;
37641;SDS011;23486;51.956;5.888;2023-04-15T12:11:56;2.60;;;0.60;;
37641;SDS011;23486;51.956;5.888;2023-04-15T12:16:51;1.73;;;0.50;;
37641;SDS011;23486;51.956;5.888;2023-04-15T12:19:40;1.63;;;0.40;;
37641;SDS011;23486;51.956;5.888;2023-04-15T12:22:11;4.32;;;0.75;;
37641;SDS011;23486;51.956;5.888;2023-04-15T12:24:38;2.00;;;0.32;;
37641;SDS011;23486;51.956;5.888;2023-04-15T12:27:05;2.38;;;0.60;;
37641;SDS011;23486;51.956;5.888;2023-04-15T12:29:32;2.33;;;0.40;;
37641;SDS011;23486;51.956;5.888;2023-04-15T12:32:06;3.40;;;0.50;;
37641;SDS011;23486;51.956;5.888;2023-04-15T12:37:30;1.08;;;0.40;;
37641;SDS011;23486;51.956;5.888;2023-04-15T12:39:56;2.50;;;0.40;;
37641;SDS011;23486;51.956;5.888;2023-04-15T12:42:21;2.95;;;0.50;;
37641;SDS011;23486;51.956;5.888;2023-04-15T12:44:47;3.03;;;0.50;;
37641;SDS011;23486;51.956;5.888;2023-04-15T12:47:13;1.83;;;0.40;;
37641;SDS011;23486;51.956;5.888;2023-04-15T12:49:38;2.20;;;0.85;;
37641;SDS011;23486;51.956;5.888;2023-04-15T12:52:05;4.10;;;0.70;;
37641;SDS011;23486;51.956;5.888;2023-04-15T12:54:31;4.57;;;0.90;;
37641;SDS011;23486;51.956;5.888;2023-04-15T12:56:57;3.85;;;0.70;;
37641;SDS011;23486;51.956;5.888;2023-04-15T12:59:23;2.53;;;0.85;;
37641;SDS011;23486;51.956;5.888;2023-04-15T13:01:49;3.08;;;0.80;;
37641;SDS011;23486;51.956;5.888;2023-04-15T13:04:18;2.78;;;0.95;;
37641;SDS011;23486;51.956;5.888;2023-04-15T13:06:44;2.08;;;0.63;;
37641;SDS011;23486;51.956;5.888;2023-04-15T13:09:10;2.70;;;0.50;;
37641;SDS011;23486;51.956;5.888;2023-04-15T13:11:36;1.33;;;0.40;;
37641;SDS011;23486;51.956;5.888;2023-04-15T13:14:02;4.78;;;0.50;;
37641;SDS011;23486;51.956;5.888;2023-04-15T13:16:29;1.25;;;0.60;;
37641;SDS011;23486;51.956;5.888;2023-04-15T13:18:56;3.03;;;0.50;;
37641;SDS011;23486;51.956;5.888;2023-04-15T13:21:24;2.35;;;0.35;;
37641;SDS011;23486;51.956;5.888;2023-04-15T13:23:51;1.92;;;0.35;;
37641;SDS011;23486;51.956;5.888;2023-04-15T13:26:17;2.85;;;0.38;;
37641;SDS011;23486;51.956;5.888;2023-04-15T13:28:42;3.17;;;0.60;;
37641;SDS011;23486;51.956;5.888;2023-04-15T13:31:08;1.67;;;0.30;;
37641;SDS011;23486;51.956;5.888;2023-04-15T13:33:34;1.00;;;0.22;;
37641;SDS011;23486;51.956;5.888;2023-04-15T13:35:59;1.17;;;0.30;;
37641;SDS011;23486;51.956;5.888;2023-04-15T13:38:25;1.35;;;0.30;;
37641;SDS011;23486;51.956;5.888;2023-04-15T13:41:00;2.45;;;0.30;;
37641;SDS011;23486;51.956;5.888;2023-04-15T13:43:25;1.85;;;0.20;;
37641;SDS011;23486;51.956;5.888;2023-04-15T13:45:51;1.60;;;0.28;;
37641;SDS011;23486;51.956;5.888;2023-04-15T13:48:23;0.93;;;0.20;;
37641;SDS011;23486;51.956;5.888;2023-04-15T13:50:49;1.70;;;0.28;;
37641;SDS011;23486;51.956;5.888;2023-04-15T13:53:15;0.80;;;0.20;;
37641;SDS011;23486;51.956;5.888;2023-04-15T13:55:40;0.85;;;0.30;;
37641;SDS011;23486;51.956;5.888;2023-04-15T13:58:07;6.45;;;0.77;;
37641;SDS011;23486;51.956;5.888;2023-04-15T14:00:33;1.58;;;0.20;;
37641;SDS011;23486;51.956;5.888;2023-04-15T14:02:58;2.17;;;0.40;;
37641;SDS011;23486;51.956;5.888;2023-04-15T14:05:24;1.65;;;0.30;;
37641;SDS011;23486;51.956;5.888;2023-04-15T14:07:50;0.88;;;0.30;;
37641;SDS011;23486;51.956;5.888;2023-04-15T14:10:15;2.80;;;0.30;;
37641;SDS011;23486;51.956;5.888;2023-04-15T14:12:41;2.85;;;0.30;;
37641;SDS011;23486;51.956;5.888;2023-04-15T14:15:07;1.90;;;0.35;;
37641;SDS011;23486;51.956;5.888;2023-04-15T14:17:32;1.60;;;0.35;;
37641;SDS011;23486;51.956;5.888;2023-04-15T14:19:58;3.92;;;0.30;;
37641;SDS011;23486;51.956;5.888;2023-04-15T14:22:24;2.88;;;0.30;;
37641;SDS011;23486;51.956;5.888;2023-04-15T14:24:49;1.10;;;0.20;;
37641;SDS011;23486;51.956;5.888;2023-04-15T14:27:17;2.60;;;0.35;;
37641;SDS011;23486;51.956;5.888;2023-04-15T14:29:43;2.80;;;0.22;;
37641;SDS011;23486;51.956;5.888;2023-04-15T14:32:08;2.35;;;0.50;;
37641;SDS011;23486;51.956;5.888;2023-04-15T14:34:34;2.50;;;0.40;;
37641;SDS011;23486;51.956;5.888;2023-04-15T14:37:01;1.92;;;0.30;;
37641;SDS011;23486;51.956;5.888;2023-04-15T14:39:27;3.67;;;0.40;;
37641;SDS011;23486;51.956;5.888;2023-04-15T14:41:52;1.88;;;0.47;;
37641;SDS011;23486;51.956;5.888;2023-04-15T14:44:19;2.63;;;0.47;;
37641;SDS011;23486;51.956;5.888;2023-04-15T14:46:45;2.35;;;0.50;;
37641;SDS011;23486;51.956;5.888;2023-04-15T14:49:10;2.20;;;0.47;;
37641;SDS011;23486;51.956;5.888;2023-04-15T14:51:36;1.55;;;0.38;;
37641;SDS011;23486;51.956;5.888;2023-04-15T14:54:05;4.55;;;0.73;;
37641;SDS011;23486;51.956;5.888;2023-04-15T14:56:30;4.10;;;0.40;;
37641;SDS011;23486;51.956;5.888;2023-04-15T14:58:56;2.88;;;0.40;;
37641;SDS011;23486;51.956;5.888;2023-04-15T15:01:24;2.10;;;0.40;;
37641;SDS011;23486;51.956;5.888;2023-04-15T15:03:50;4.35;;;0.50;;
37641;SDS011;23486;51.956;5.888;2023-04-15T15:06:15;1.60;;;0.40;;
37641;SDS011;23486;51.956;5.888;2023-04-15T15:08:41;1.20;;;0.32;;
37641;SDS011;23486;51.956;5.888;2023-04-15T15:11:06;2.60;;;0.40;;
37641;SDS011;23486;51.956;5.888;2023-04-15T15:13:32;2.30;;;0.40;;
37641;SDS011;23486;51.956;5.888;2023-04-15T15:15:58;2.70;;;0.55;;